sensor_id;sensor_type;location;lat;lon;timestamp;pressure;altitude;pressure_sealevel;temperature;humidity
23733;BME280;12047;53.450;-2.286;2023-04-09T00:05:37;102129.31;;;14.71;90.60
23733;BME280;12047;53.450;-2.286;2023-04-09T00:10:46;102131.16;;;14.50;92.01
23733;BME280;12047;53.450;-2.286;2023-04-09T00:16:05;102118.06;;;14.68;93.77
23733;BME280;12047;53.450;-2.286;2023-04-09T00:21:09;102114.88;;;14.21;99.27
23733;BME280;12047;53.450;-2.286;2023-04-09T00:26:18;102113.91;;;14.54;99.80
23733;BME280;12047;53.450;-2.286;2023-04-09T00:31:25;102118.38;;;14.95;100.00
23733;BME280;12047;53.450;-2.286;2023-04-09T00:47:20;102104.78;;;14.77;100.00
23733;BME280;12047;53.450;-2.286;2023-04-09T00:52:52;102103.25;;;15.05;100.00
23733;BME280;12047;53.450;-2.286;2023-04-09T00:57:53;102086.53;;;14.52;100.00
23733;BME280;12047;53.450;-2.286;2023-04-09T01:03:05;102082.06;;;14.62;100.00
23733;BME280;12047;53.450;-2.286;2023-04-09T01:09:02;102073.19;;;14.52;100.00
23733;BME280;12047;53.450;-2.286;2023-04-09T01:20:05;102072.44;;;14.71;100.00
23733;BME280;12047;53.450;-2.286;2023-04-09T01:31:17;102045.91;;;14.27;100.00
23733;BME280;12047;53.450;-2.286;2023-04-09T01:42:32;102041.53;;;15.29;100.00
23733;BME280;12047;53.450;-2.286;2023-04-09T02:19:56;102024.47;;;14.50;100.00
23733;BME280;12047;53.450;-2.286;2023-04-09T02:25:04;102026.06;;;14.62;100.00
23733;BME280;12047;53.450;-2.286;2023-04-09T02:30:06;102023.53;;;14.60;100.00
23733;BME280;12047;53.450;-2.286;2023-04-09T02:35:07;102029.44;;;14.64;100.00
23733;BME280;12047;53.450;-2.286;2023-04-09T02:40:08;102022.22;;;14.76;100.00
23733;BME280;12047;53.450;-2.286;2023-04-09T02:45:09;102018.72;;;14.34;100.00
23733;BME280;12047;53.450;-2.286;2023-04-09T02:50:10;102018.69;;;14.13;100.00
23733;BME280;12047;53.450;-2.286;2023-04-09T03:01:07;102031.13;;;14.65;100.00
23733;BME280;12047;53.450;-2.286;2023-04-09T03:06:08;102021.91;;;14.27;100.00
23733;BME280;12047;53.450;-2.286;2023-04-09T03:11:09;102019.19;;;13.54;100.00
23733;BME280;12047;53.450;-2.286;2023-04-09T03:16:09;102006.25;;;13.49;100.00
23733;BME280;12047;53.450;-2.286;2023-04-09T03:21:11;102000.44;;;13.55;100.00
23733;BME280;12047;53.450;-2.286;2023-04-09T03:26:12;101992.25;;;13.68;100.00
23733;BME280;12047;53.450;-2.286;2023-04-09T03:31:12;101989.06;;;13.42;100.00
23733;BME280;12047;53.450;-2.286;2023-04-09T03:36:13;101983.25;;;13.48;100.00
23733;BME280;12047;53.450;-2.286;2023-04-09T03:41:13;101982.41;;;13.80;100.00
23733;BME280;12047;53.450;-2.286;2023-04-09T03:46:15;101970.06;;;13.79;100.00
23733;BME280;12047;53.450;-2.286;2023-04-09T03:51:16;101976.97;;;13.81;100.00
23733;BME280;12047;53.450;-2.286;2023-04-09T03:56:19;101968.25;;;13.79;100.00
23733;BME280;12047;53.450;-2.286;2023-04-09T04:01:20;101967.47;;;13.24;100.00
23733;BME280;12047;53.450;-2.286;2023-04-09T04:06:23;101952.13;;;13.17;100.00
23733;BME280;12047;53.450;-2.286;2023-04-09T04:11:43;101958.69;;;13.45;100.00
23733;BME280;12047;53.450;-2.286;2023-04-09T04:16:46;101953.44;;;13.34;100.00
23733;BME280;12047;53.450;-2.286;2023-04-09T04:21:46;101938.22;;;13.56;100.00
23733;BME280;12047;53.450;-2.286;2023-04-09T04:26:47;101951.19;;;13.39;100.00
23733;BME280;12047;53.450;-2.286;2023-04-09T04:31:47;101944.84;;;13.30;100.00
23733;BME280;12047;53.450;-2.286;2023-04-09T04:36:48;101938.59;;;12.64;100.00
23733;BME280;12047;53.450;-2.286;2023-04-09T04:41:48;101924.84;;;12.81;100.00
23733;BME280;12047;53.450;-2.286;2023-04-09T04:46:49;101924.72;;;12.83;100.00
23733;BME280;12047;53.450;-2.286;2023-04-09T05:09:16;101924.31;;;12.87;100.00
23733;BME280;12047;53.450;-2.286;2023-04-09T05:14:58;101921.94;;;12.62;100.00
23733;BME280;12047;53.450;-2.286;2023-04-09T05:36:30;101883.03;;;12.50;100.00
23733;BME280;12047;53.450;-2.286;2023-04-09T05:41:51;101879.91;;;12.34;100.00
23733;BME280;12047;53.450;-2.286;2023-04-09T05:47:30;101873.25;;;12.17;100.00
23733;BME280;12047;53.450;-2.286;2023-04-09T05:58:48;101875.75;;;11.85;100.00
23733;BME280;12047;53.450;-2.286;2023-04-09T06:10:00;101890.00;;;11.95;100.00
23733;BME280;12047;53.450;-2.286;2023-04-09T06:20:22;101878.69;;;12.04;100.00
23733;BME280;12047;53.450;-2.286;2023-04-09T06:25:23;101883.88;;;12.17;100.00
23733;BME280;12047;53.450;-2.286;2023-04-09T06:30:24;101878.94;;;12.46;100.00
23733;BME280;12047;53.450;-2.286;2023-04-09T06:35:30;101896.81;;;12.10;100.00
23733;BME280;12047;53.450;-2.286;2023-04-09T06:40:39;101893.69;;;12.27;100.00
23733;BME280;12047;53.450;-2.286;2023-04-09T06:45:40;101893.94;;;13.44;100.00
23733;BME280;12047;53.450;-2.286;2023-04-09T06:51:05;101894.38;;;12.74;100.00
23733;BME280;12047;53.450;-2.286;2023-04-09T06:56:26;101882.28;;;13.56;100.00
23733;BME280;12047;53.450;-2.286;2023-04-09T07:01:27;101887.63;;;13.56;100.00
23733;BME280;12047;53.450;-2.286;2023-04-09T07:06:30;101879.88;;;14.25;100.00
23733;BME280;12047;53.450;-2.286;2023-04-09T07:18:34;101859.84;;;14.31;100.00
23733;BME280;12047;53.450;-2.286;2023-04-09T07:23:53;101851.69;;;14.63;100.00
23733;BME280;12047;53.450;-2.286;2023-04-09T07:28:53;101852.31;;;15.53;100.00
23733;BME280;12047;53.450;-2.286;2023-04-09T07:33:56;101861.59;;;15.69;100.00
23733;BME280;12047;53.450;-2.286;2023-04-09T07:38:59;101866.69;;;16.09;100.00
23733;BME280;12047;53.450;-2.286;2023-04-09T07:44:00;101860.47;;;14.94;100.00
23733;BME280;12047;53.450;-2.286;2023-04-09T07:49:04;101875.53;;;15.43;100.00
23733;BME280;12047;53.450;-2.286;2023-04-09T07:54:08;101882.97;;;15.78;100.00
23733;BME280;12047;53.450;-2.286;2023-04-09T07:59:09;101895.84;;;14.86;100.00
23733;BME280;12047;53.450;-2.286;2023-04-09T08:04:18;101883.25;;;15.37;100.00
23733;BME280;12047;53.450;-2.286;2023-04-09T08:09:20;101909.41;;;15.33;100.00
23733;BME280;12047;53.450;-2.286;2023-04-09T08:14:20;101902.38;;;14.63;100.00
23733;BME280;12047;53.450;-2.286;2023-04-09T08:19:21;101902.91;;;15.36;100.00
23733;BME280;12047;53.450;-2.286;2023-04-09T08:24:22;101898.53;;;16.39;100.00
23733;BME280;12047;53.450;-2.286;2023-04-09T08:29:22;101895.03;;;15.92;100.00
23733;BME280;12047;53.450;-2.286;2023-04-09T08:34:23;101870.66;;;16.42;100.00
23733;BME280;12047;53.450;-2.286;2023-04-09T08:39:23;101858.78;;;15.41;100.00
23733;BME280;12047;53.450;-2.286;2023-04-09T08:44:55;101851.69;;;17.08;100.00
23733;BME280;12047;53.450;-2.286;2023-04-09T08:50:19;101847.25;;;16.81;100.00
23733;BME280;12047;53.450;-2.286;2023-04-09T09:01:27;101836.72;;;18.02;96.69
23733;BME280;12047;53.450;-2.286;2023-04-09T09:06:39;101839.53;;;17.31;95.25
23733;BME280;12047;53.450;-2.286;2023-04-09T09:12:03;101829.63;;;16.33;100.00
23733;BME280;12047;53.450;-2.286;2023-04-09T09:29:41;101804.56;;;18.10;93.73
23733;BME280;12047;53.450;-2.286;2023-04-09T09:35:06;101807.06;;;18.12;92.26
23733;BME280;12047;53.450;-2.286;2023-04-09T09:40:27;101792.38;;;18.82;89.79
23733;BME280;12047;53.450;-2.286;2023-04-09T09:50:51;101788.59;;;17.49;92.35
23733;BME280;12047;53.450;-2.286;2023-04-09T10:02:07;101782.94;;;17.34;91.74
23733;BME280;12047;53.450;-2.286;2023-04-09T10:07:45;101780.88;;;17.97;92.16
23733;BME280;12047;53.450;-2.286;2023-04-09T10:24:57;101741.00;;;18.02;89.77
23733;BME280;12047;53.450;-2.286;2023-04-09T10:36:14;101712.09;;;18.30;87.35
23733;BME280;12047;53.450;-2.286;2023-04-09T10:41:32;101703.09;;;18.56;86.45
23733;BME280;12047;53.450;-2.286;2023-04-09T10:52:30;101690.72;;;18.05;89.96
23733;BME280;12047;53.450;-2.286;2023-04-09T11:08:50;101661.47;;;18.52;87.62
23733;BME280;12047;53.450;-2.286;2023-04-09T11:19:58;101651.25;;;18.55;85.36
23733;BME280;12047;53.450;-2.286;2023-04-09T12:01:23;101588.88;;;20.49;84.29
23733;BME280;12047;53.450;-2.286;2023-04-09T12:18:30;101585.56;;;20.16;82.58
23733;BME280;12047;53.450;-2.286;2023-04-09T12:29:36;101582.38;;;20.58;83.52
23733;BME280;12047;53.450;-2.286;2023-04-09T12:45:35;101570.97;;;21.23;81.87
23733;BME280;12047;53.450;-2.286;2023-04-09T13:21:27;101515.84;;;20.29;84.03
23733;BME280;12047;53.450;-2.286;2023-04-09T13:32:32;101510.97;;;21.06;85.43
23733;BME280;12047;53.450;-2.286;2023-04-09T13:43:33;101498.66;;;20.67;84.23
23733;BME280;12047;53.450;-2.286;2023-04-09T13:48:33;101488.59;;;20.61;84.71
23733;BME280;12047;53.450;-2.286;2023-04-09T13:53:34;101483.31;;;20.30;85.79
23733;BME280;12047;53.450;-2.286;2023-04-09T13:58:45;101485.25;;;21.54;83.66
23733;BME280;12047;53.450;-2.286;2023-04-09T14:03:48;101470.56;;;21.06;83.75
23733;BME280;12047;53.450;-2.286;2023-04-09T14:08:52;101464.81;;;20.80;84.62
23733;BME280;12047;53.450;-2.286;2023-04-09T14:13:53;101466.38;;;21.54;83.05
23733;BME280;12047;53.450;-2.286;2023-04-09T14:18:54;101451.59;;;21.29;82.32
23733;BME280;12047;53.450;-2.286;2023-04-09T14:30:21;101439.53;;;21.89;81.04
23733;BME280;12047;53.450;-2.286;2023-04-09T14:35:22;101427.47;;;21.85;80.79
23733;BME280;12047;53.450;-2.286;2023-04-09T14:40:22;101418.53;;;21.84;79.47
23733;BME280;12047;53.450;-2.286;2023-04-09T14:45:23;101418.44;;;21.50;77.01
23733;BME280;12047;53.450;-2.286;2023-04-09T14:50:24;101421.28;;;21.91;76.23
23733;BME280;12047;53.450;-2.286;2023-04-09T14:55:24;101427.97;;;22.16;75.41
23733;BME280;12047;53.450;-2.286;2023-04-09T15:00:25;101409.69;;;21.69;75.36
23733;BME280;12047;53.450;-2.286;2023-04-09T15:05:25;101398.59;;;20.85;78.27
23733;BME280;12047;53.450;-2.286;2023-04-09T15:10:26;101382.72;;;21.69;78.31
23733;BME280;12047;53.450;-2.286;2023-04-09T15:21:24;101382.06;;;20.88;79.90
23733;BME280;12047;53.450;-2.286;2023-04-09T15:26:34;101383.50;;;20.69;80.76
23733;BME280;12047;53.450;-2.286;2023-04-09T15:31:39;101359.91;;;20.71;79.22
23733;BME280;12047;53.450;-2.286;2023-04-09T15:36:39;101342.88;;;21.22;78.01
23733;BME280;12047;53.450;-2.286;2023-04-09T15:47:37;101311.47;;;19.98;80.19
23733;BME280;12047;53.450;-2.286;2023-04-09T15:52:40;101310.84;;;19.96;78.92
23733;BME280;12047;53.450;-2.286;2023-04-09T16:03:23;101316.47;;;20.60;80.14
23733;BME280;12047;53.450;-2.286;2023-04-09T16:14:12;101321.78;;;20.53;78.11
23733;BME280;12047;53.450;-2.286;2023-04-09T16:19:40;101317.94;;;21.20;79.29
23733;BME280;12047;53.450;-2.286;2023-04-09T16:42:31;101270.47;;;20.76;81.66
23733;BME280;12047;53.450;-2.286;2023-04-09T16:53:39;101242.38;;;20.64;82.59
23733;BME280;12047;53.450;-2.286;2023-04-09T16:58:58;101235.50;;;21.04;82.50
23733;BME280;12047;53.450;-2.286;2023-04-09T17:04:14;101248.88;;;20.04;82.96
23733;BME280;12047;53.450;-2.286;2023-04-09T17:48:22;101200.75;;;20.45;87.15
23733;BME280;12047;53.450;-2.286;2023-04-09T18:17:05;101176.53;;;19.94;89.70
23733;BME280;12047;53.450;-2.286;2023-04-09T18:22:09;101180.94;;;20.17;89.28
23733;BME280;12047;53.450;-2.286;2023-04-09T20:53:37;101037.38;;;19.01;84.52
23733;BME280;12047;53.450;-2.286;2023-04-09T21:05:10;101023.44;;;18.83;83.00
23733;BME280;12047;53.450;-2.286;2023-04-09T21:40:25;100976.78;;;18.84;87.75
23733;BME280;12047;53.450;-2.286;2023-04-09T21:45:26;100964.56;;;18.52;92.22
23733;BME280;12047;53.450;-2.286;2023-04-09T21:50:30;100951.59;;;18.04;94.58
23733;BME280;12047;53.450;-2.286;2023-04-09T21:55:31;100935.78;;;17.71;96.57
23733;BME280;12047;53.450;-2.286;2023-04-09T22:00:32;100937.47;;;17.64;95.58
23733;BME280;12047;53.450;-2.286;2023-04-09T22:05:35;100933.75;;;17.73;95.24
23733;BME280;12047;53.450;-2.286;2023-04-09T22:10:38;100910.47;;;17.43;94.19
23733;BME280;12047;53.450;-2.286;2023-04-09T22:15:41;100895.03;;;17.53;92.19
23733;BME280;12047;53.450;-2.286;2023-04-09T22:20:42;100882.25;;;18.15;94.27
23733;BME280;12047;53.450;-2.286;2023-04-09T22:25:42;100881.19;;;17.41;100.00
23733;BME280;12047;53.450;-2.286;2023-04-09T22:30:43;100886.53;;;17.41;100.00
23733;BME280;12047;53.450;-2.286;2023-04-09T22:35:46;100898.53;;;17.53;100.00
23733;BME280;12047;53.450;-2.286;2023-04-09T22:40:47;100908.16;;;17.62;100.00
23733;BME280;12047;53.450;-2.286;2023-04-09T22:45:54;100915.63;;;17.21;100.00
23733;BME280;12047;53.450;-2.286;2023-04-09T22:50:55;100906.59;;;17.22;100.00
23733;BME280;12047;53.450;-2.286;2023-04-09T22:55:59;100901.78;;;17.86;100.00
23733;BME280;12047;53.450;-2.286;2023-04-09T23:01:02;100885.34;;;17.21;100.00
23733;BME280;12047;53.450;-2.286;2023-04-09T23:06:03;100859.47;;;16.82;100.00
23733;BME280;12047;53.450;-2.286;2023-04-09T23:11:04;100852.69;;;16.63;100.00
23733;BME280;12047;53.450;-2.286;2023-04-09T23:16:12;100829.09;;;16.59;100.00
23733;BME280;12047;53.450;-2.286;2023-04-09T23:21:12;100840.28;;;16.71;100.00
23733;BME280;12047;53.450;-2.286;2023-04-09T23:26:13;100831.75;;;16.59;100.00
23733;BME280;12047;53.450;-2.286;2023-04-09T23:31:13;100822.31;;;17.10;100.00
23733;BME280;12047;53.450;-2.286;2023-04-09T23:36:17;100801.63;;;16.81;100.00
23733;BME280;12047;53.450;-2.286;2023-04-09T23:41:18;100799.47;;;16.29;100.00
23733;BME280;12047;53.450;-2.286;2023-04-09T23:46:24;100797.34;;;16.64;100.00
23733;BME280;12047;53.450;-2.286;2023-04-09T23:57:25;100785.34;;;16.52;100.00
